This is the latest recevied weather packets stored in our database for station/object OE3WYC-1. If no packets are shown the sender has not sent any weather packets the latest 10 day(s).
| Time | Temp. | Humidity | Pressure | Rain* | Wind** | Luminosity | Snow |
|---|---|---|---|---|---|---|---|
| 1777429806 | 8.33° C | 41% | 1021.8 hPa | 0 mm | - | - | - |
| 1777427706 | 8.89° C | 40% | 1021.8 hPa | 0 mm | - | - | - |
| 1777425307 | 9.44° C | 39% | 1021.5 hPa | 0 mm | - | - | - |
| 1777422607 | 9.44° C | 41% | 1021.6 hPa | 0 mm | - | - | - |
| 1777422007 | 9.44° C | 42% | 1021.7 hPa | 0 mm | - | - | - |
| 1777420807 | 10° C | 42% | 1021.6 hPa | 0 mm | - | - | - |
| 1777420207 | 10° C | 42% | 1021.4 hPa | 0 mm | - | - | - |
| 1777419606 | 10° C | 42% | 1021.4 hPa | 0 mm | - | - | - |
| 1777419006 | 10° C | 42% | 1021.4 hPa | 0 mm | - | - | - |
| 1777416907 | 10.56° C | 40% | 1021.1 hPa | 0 mm | - | - | - |
| 1777416306 | 10.56° C | 40% | 1021.1 hPa | 0 mm | - | - | - |
| 1777410307 | 12.22° C | 44% | 1020.2 hPa | 0 mm | - | - | - |
| 1777405806 | 13.33° C | 42% | 1019.5 hPa | 0 mm | - | - | - |
| 1777401306 | 15.56° C | 39% | 1018.8 hPa | 0 mm | - | - | - |
| 1777401006 | 15.56° C | 39% | 1018.8 hPa | 0 mm | - | - | - |
| 1777398306 | 16.67° C | 36% | 1018.1 hPa | 0 mm | - | - | - |
| 1777395306 | 18.33° C | 34% | 1017.7 hPa | 0 mm | - | - | - |
| 1777393207 | 18.89° C | 34% | 1017.7 hPa | 0 mm | - | - | - |
| 1777392607 | 18.89° C | 33% | 1017.6 hPa | 0 mm | - | - | - |
| 1777391706 | 19.44° C | 33% | 1017.5 hPa | 0 mm | - | - | - |
| 1777391406 | 19.44° C | 33% | 1017.6 hPa | 0 mm | - | - | - |
| 1777389006 | 20° C | 35% | 1017.5 hPa | 0 mm | - | - | - |
| 1777388106 | 20° C | 34% | 1017.6 hPa | 0 mm | - | - | - |
| 1777385107 | 20.56° C | 35% | 1018 hPa | 0 mm | - | - | - |
| 1777384206 | 20.56° C | 35% | 1018.2 hPa | 0 mm | - | - | - |
* Rain latest hour (hover to see other rain measurements)
** Current wind speed in m/s (hover to see current wind gust speed)